Time;durP1;ratioP1;P1;durP2;ratioP2;P2;SDS_P1;SDS_P2;PMS_P1;PMS_P2;Temp;Humidity;BMP_temperature;BMP_pressure;BME280_temperature;BME280_humidity;BME280_pressure;Samples;Min_cycle;Max_cycle;Signal;HPM_P1;HPM_P2
2021/05/08 00:01:01;;;;;;;1.50;1.40;;;;;;;;;;5113545;28;20204;-41
2021/05/08 00:03:27;;;;;;;1.33;1.10;;;;;;;;;;5114584;28;20197;-40
2021/05/08 00:05:53;;;;;;;1.30;1.20;;;;;;;;;;5114895;28;20910;-40
2021/05/08 00:08:19;;;;;;;2.13;1.40;;;;;;;;;;5113716;28;20189;-40
2021/05/08 00:10:45;;;;;;;1.73;1.40;;;;;;;;;;5097045;28;20249;-40
2021/05/08 00:13:12;;;;;;;1.50;1.40;;;;;;;;;;5114337;28;20177;-40
2021/05/08 00:15:38;;;;;;;1.50;1.40;;;;;;;;;;5118508;28;20197;-40
2021/05/08 00:18:04;;;;;;;1.52;1.38;;;;;;;;;;5117031;28;20520;-40
2021/05/08 00:20:30;;;;;;;1.50;1.40;;;;;;;;;;5117838;28;20185;-40
2021/05/08 00:22:56;;;;;;;1.33;1.23;;;;;;;;;;5117580;28;20188;-41
2021/05/08 00:25:22;;;;;;;1.45;1.35;;;;;;;;;;5118086;28;20221;-40
2021/05/08 00:27:48;;;;;;;1.30;1.20;;;;;;;;;;5116461;28;20235;-40
2021/05/08 00:30:15;;;;;;;1.40;1.30;;;;;;;;;;5117565;28;20205;-41
2021/05/08 00:32:41;;;;;;;1.63;1.52;;;;;;;;;;5116991;28;20192;-40
2021/05/08 00:35:08;;;;;;;1.50;1.40;;;;;;;;;;5117581;28;20205;-41
2021/05/08 00:37:34;;;;;;;1.38;1.27;;;;;;;;;;5116892;28;20436;-41
2021/05/08 00:40:00;;;;;;;1.50;1.40;;;;;;;;;;5113470;28;20173;-40
2021/05/08 00:42:26;;;;;;;1.50;1.30;;;;;;;;;;5111592;28;20181;-40
2021/05/08 00:44:52;;;;;;;1.50;1.40;;;;;;;;;;5117351;28;20305;-40
2021/05/08 00:47:19;;;;;;;1.45;1.35;;;;;;;;;;5115919;28;20472;-40
2021/05/08 00:49:45;;;;;;;1.15;1.00;;;;;;;;;;5117584;28;20173;-40
2021/05/08 00:52:13;;;;;;;1.27;1.17;;;;;;;;;;5116986;28;20168;-40
2021/05/08 00:54:39;;;;;;;1.67;1.52;;;;;;;;;;5116963;28;20548;-40
2021/05/08 00:57:05;;;;;;;1.38;1.27;;;;;;;;;;5116818;28;20278;-40
2021/05/08 00:59:31;;;;;;;1.73;1.10;;;;;;;;;;5116794;28;20177;-40
2021/05/08 01:01:57;;;;;;;1.42;1.20;;;;;;;;;;5116589;28;20227;-41
2021/05/08 01:04:23;;;;;;;1.60;1.13;;;;;;;;;;5117020;28;20173;-40
2021/05/08 01:06:49;;;;;;;1.20;1.00;;;;;;;;;;5116888;28;20177;-40
2021/05/08 01:09:15;;;;;;;1.20;1.10;;;;;;;;;;5116714;28;20437;-40
2021/05/08 01:11:41;;;;;;;1.40;1.30;;;;;;;;;;5116225;28;20184;-40
2021/05/08 01:14:07;;;;;;;1.25;1.10;;;;;;;;;;5117114;28;20811;-40
2021/05/08 01:16:33;;;;;;;1.48;1.17;;;;;;;;;;5116296;28;20204;-40
2021/05/08 01:19:00;;;;;;;1.63;1.40;;;;;;;;;;5116755;28;20272;-40
2021/05/08 01:21:26;;;;;;;1.17;1.08;;;;;;;;;;5115162;28;20230;-40
2021/05/08 01:23:52;;;;;;;1.08;1.00;;;;;;;;;;5115848;28;20256;-41
2021/05/08 01:26:18;;;;;;;1.50;1.40;;;;;;;;;;5116633;28;20268;-40
2021/05/08 01:28:44;;;;;;;1.30;1.20;;;;;;;;;;5116787;28;20601;-40
2021/05/08 01:31:11;;;;;;;1.00;1.00;;;;;;;;;;5116310;28;20173;-41
2021/05/08 01:33:38;;;;;;;1.10;1.00;;;;;;;;;;5116330;28;20181;-40
2021/05/08 01:36:04;;;;;;;1.40;1.30;;;;;;;;;;5112955;28;20300;-40
2021/05/08 01:38:32;;;;;;;1.33;1.20;;;;;;;;;;5100304;28;20181;-40
2021/05/08 01:40:59;;;;;;;1.30;1.20;;;;;;;;;;5102906;28;20203;-40
2021/05/08 01:43:25;;;;;;;1.13;1.00;;;;;;;;;;5116500;28;20206;-40
2021/05/08 01:45:51;;;;;;;1.20;1.13;;;;;;;;;;5115311;28;20204;-40
2021/05/08 01:48:17;;;;;;;1.08;0.98;;;;;;;;;;5116136;28;20227;-40
2021/05/08 01:50:43;;;;;;;1.25;1.15;;;;;;;;;;5115758;28;20225;-40
2021/05/08 01:53:09;;;;;;;0.90;0.90;;;;;;;;;;5115673;28;20197;-41
2021/05/08 01:55:35;;;;;;;0.80;0.80;;;;;;;;;;5115307;28;20205;-40
2021/05/08 01:58:01;;;;;;;1.25;1.15;;;;;;;;;;5116344;28;20199;-40
2021/05/08 02:00:27;;;;;;;1.17;1.08;;;;;;;;;;5115285;28;20181;-41
2021/05/08 02:02:54;;;;;;;1.30;1.20;;;;;;;;;;5112490;28;20173;-40
2021/05/08 02:05:21;;;;;;;1.13;1.00;;;;;;;;;;5106561;28;20188;-40
2021/05/08 02:07:47;;;;;;;1.10;1.00;;;;;;;;;;5115929;28;20184;-40
2021/05/08 02:10:13;;;;;;;1.00;1.00;;;;;;;;;;5115964;28;20169;-40
2021/05/08 02:12:40;;;;;;;1.00;0.90;;;;;;;;;;5113128;28;20188;-40
2021/05/08 02:15:07;;;;;;;1.30;1.20;;;;;;;;;;5108081;28;20201;-40
2021/05/08 02:17:33;;;;;;;1.17;1.08;;;;;;;;;;5115421;28;20169;-40
2021/05/08 02:19:59;;;;;;;0.90;0.90;;;;;;;;;;5115345;28;20177;-40
2021/05/08 02:22:25;;;;;;;1.30;1.00;;;;;;;;;;5114430;28;20185;-40
2021/05/08 02:24:51;;;;;;;0.98;0.95;;;;;;;;;;5115270;28;20265;-40
2021/05/08 02:27:18;;;;;;;1.10;0.90;;;;;;;;;;5115724;28;20240;-40
2021/05/08 02:29:44;;;;;;;1.30;1.20;;;;;;;;;;5115246;28;20177;-41
2021/05/08 02:32:10;;;;;;;1.20;1.08;;;;;;;;;;5113539;28;20199;-40
2021/05/08 02:34:36;;;;;;;1.00;0.95;;;;;;;;;;5114893;28;20225;-40
2021/05/08 02:37:02;;;;;;;1.13;1.00;;;;;;;;;;5114815;28;20529;-40
2021/05/08 02:39:28;;;;;;;1.00;1.00;;;;;;;;;;5115507;28;20169;-40
2021/05/08 02:41:54;;;;;;;0.98;0.90;;;;;;;;;;5106913;28;20568;-40
2021/05/08 02:44:21;;;;;;;1.10;1.00;;;;;;;;;;5099864;28;20208;-40
2021/05/08 02:46:47;;;;;;;0.82;0.82;;;;;;;;;;5114576;28;20226;-40
2021/05/08 02:49:13;;;;;;;0.80;0.80;;;;;;;;;;5114870;28;20185;-40
2021/05/08 02:51:39;;;;;;;1.13;1.02;;;;;;;;;;5099838;28;20181;-40
2021/05/08 02:54:05;;;;;;;1.13;1.02;;;;;;;;;;5109540;28;20258;-40
2021/05/08 02:56:31;;;;;;;0.88;0.88;;;;;;;;;;5110185;28;20258;-40
2021/05/08 02:58:57;;;;;;;1.00;0.98;;;;;;;;;;5114848;28;20181;-40
2021/05/08 03:01:23;;;;;;;1.00;1.00;;;;;;;;;;5111264;28;20615;-40
2021/05/08 03:03:49;;;;;;;1.13;0.80;;;;;;;;;;5109665;28;20180;-40
2021/05/08 03:06:15;;;;;;;0.90;0.90;;;;;;;;;;5114927;28;20208;-40
2021/05/08 03:08:41;;;;;;;0.90;0.90;;;;;;;;;;5115049;28;20188;-41
2021/05/08 03:11:07;;;;;;;1.00;1.00;;;;;;;;;;5113337;28;20472;-40
2021/05/08 03:13:33;;;;;;;0.98;0.93;;;;;;;;;;5094833;28;20243;-40
2021/05/08 03:15:59;;;;;;;1.55;0.98;;;;;;;;;;5114068;28;20631;-41
2021/05/08 03:18:25;;;;;;;0.88;0.88;;;;;;;;;;5114271;28;20215;-40
2021/05/08 03:20:51;;;;;;;0.82;0.82;;;;;;;;;;5113815;28;20289;-40
2021/05/08 03:23:17;;;;;;;1.00;1.00;;;;;;;;;;5114479;28;20173;-40
2021/05/08 03:25:43;;;;;;;0.90;0.90;;;;;;;;;;5114691;28;20544;-40
2021/05/08 03:28:09;;;;;;;0.90;0.90;;;;;;;;;;5115050;28;20184;-40
2021/05/08 03:30:35;;;;;;;0.95;0.85;;;;;;;;;;5105587;28;20256;-40
2021/05/08 03:33:01;;;;;;;0.80;0.80;;;;;;;;;;5114111;28;20181;-40
2021/05/08 03:35:27;;;;;;;1.02;0.80;;;;;;;;;;5114285;28;20216;-40
2021/05/08 03:37:53;;;;;;;1.77;0.80;;;;;;;;;;5114991;28;20475;-40
2021/05/08 03:40:19;;;;;;;0.73;0.73;;;;;;;;;;5114475;28;20196;-40
2021/05/08 03:42:45;;;;;;;0.77;0.77;;;;;;;;;;5114163;28;20195;-40
2021/05/08 03:45:12;;;;;;;1.17;0.98;;;;;;;;;;5117201;28;20585;-40
2021/05/08 03:47:38;;;;;;;1.08;1.08;;;;;;;;;;5118169;28;20184;-40
2021/05/08 03:50:05;;;;;;;0.82;0.82;;;;;;;;;;5103173;28;20715;-40
2021/05/08 03:52:32;;;;;;;1.20;0.90;;;;;;;;;;5110025;28;20510;-40
2021/05/08 03:54:58;;;;;;;1.13;1.02;;;;;;;;;;5118262;28;20284;-40
2021/05/08 03:57:24;;;;;;;0.90;0.90;;;;;;;;;;5118616;28;20197;-40
2021/05/08 03:59:50;;;;;;;0.75;0.75;;;;;;;;;;5116671;28;20804;-40
2021/05/08 04:02:16;;;;;;;0.80;0.80;;;;;;;;;;5117322;28;20258;-40
2021/05/08 04:04:42;;;;;;;0.90;0.90;;;;;;;;;;5118463;28;20244;-40
2021/05/08 04:07:08;;;;;;;0.80;0.70;;;;;;;;;;5118407;28;20169;-40
2021/05/08 04:09:34;;;;;;;1.00;0.90;;;;;;;;;;5117381;28;20286;-40
2021/05/08 04:12:00;;;;;;;0.70;0.70;;;;;;;;;;5117870;28;20214;-40
2021/05/08 04:14:26;;;;;;;0.80;0.80;;;;;;;;;;5117739;28;20181;-40
2021/05/08 04:16:52;;;;;;;0.70;0.70;;;;;;;;;;5113749;28;20584;-40
2021/05/08 04:19:18;;;;;;;0.75;0.75;;;;;;;;;;5116757;28;20173;-40
2021/05/08 04:21:44;;;;;;;0.77;0.77;;;;;;;;;;5117640;28;20192;-40
2021/05/08 04:24:10;;;;;;;0.85;0.85;;;;;;;;;;5117625;28;20216;-40
2021/05/08 04:26:36;;;;;;;0.80;0.80;;;;;;;;;;5117606;28;20170;-40
2021/05/08 04:29:02;;;;;;;0.70;0.70;;;;;;;;;;5117569;28;20188;-40
2021/05/08 04:31:28;;;;;;;0.80;0.80;;;;;;;;;;5116970;28;20181;-40
2021/05/08 04:33:54;;;;;;;1.00;0.90;;;;;;;;;;5117181;28;20279;-40
2021/05/08 04:36:20;;;;;;;0.82;0.82;;;;;;;;;;5117916;28;20202;-40
2021/05/08 04:38:46;;;;;;;1.27;0.90;;;;;;;;;;5115511;28;20185;-40
2021/05/08 04:41:13;;;;;;;0.80;0.80;;;;;;;;;;5116884;28;20540;-41
2021/05/08 04:43:39;;;;;;;0.80;0.80;;;;;;;;;;5117699;28;20173;-40
2021/05/08 04:46:05;;;;;;;0.90;0.90;;;;;;;;;;5114748;28;20267;-40
2021/05/08 04:48:33;;;;;;;0.90;0.90;;;;;;;;;;5117309;28;20300;-40
2021/05/08 04:50:59;;;;;;;0.70;0.70;;;;;;;;;;5102320;28;20178;-40
2021/05/08 04:53:25;;;;;;;0.75;0.75;;;;;;;;;;5109468;28;20185;-40
2021/05/08 04:55:51;;;;;;;0.90;0.90;;;;;;;;;;5116473;28;20231;-40
2021/05/08 04:58:19;;;;;;;0.73;0.73;;;;;;;;;;5116555;28;20169;-40
2021/05/08 05:00:45;;;;;;;0.70;0.70;;;;;;;;;;5116438;28;20284;-40
2021/05/08 05:03:11;;;;;;;0.80;0.80;;;;;;;;;;5116665;28;20260;-40
2021/05/08 05:05:37;;;;;;;0.70;0.70;;;;;;;;;;5110991;28;20227;-40
2021/05/08 05:08:03;;;;;;;2.58;0.75;;;;;;;;;;5096832;28;20174;-41
2021/05/08 05:10:29;;;;;;;0.70;0.70;;;;;;;;;;5096487;28;20194;-40
2021/05/08 05:12:55;;;;;;;1.00;1.00;;;;;;;;;;5104385;28;20188;-40
2021/05/08 05:15:23;;;;;;;0.70;0.70;;;;;;;;;;5115811;28;20196;-40
2021/05/08 05:17:48;;;;;;;0.70;0.70;;;;;;;;;;5116918;28;20165;-40
2021/05/08 05:20:14;;;;;;;0.77;0.77;;;;;;;;;;5116729;28;20264;-40
2021/05/08 05:22:40;;;;;;;0.82;0.82;;;;;;;;;;5115983;28;20187;-40
2021/05/08 05:25:07;;;;;;;1.38;0.90;;;;;;;;;;5116114;28;20230;-40
2021/05/08 05:27:33;;;;;;;0.88;0.88;;;;;;;;;;5116703;28;20196;-40
2021/05/08 05:30:00;;;;;;;0.95;0.95;;;;;;;;;;5116762;28;20170;-40
2021/05/08 05:32:26;;;;;;;0.80;0.80;;;;;;;;;;5115855;28;20219;-40
2021/05/08 05:34:52;;;;;;;1.00;0.90;;;;;;;;;;5116789;28;20448;-40
2021/05/08 05:37:18;;;;;;;1.00;1.00;;;;;;;;;;5096749;28;20855;-40
2021/05/08 05:39:44;;;;;;;1.20;1.10;;;;;;;;;;5096353;28;20174;-40
2021/05/08 05:42:10;;;;;;;1.40;1.10;;;;;;;;;;5109411;28;20192;-40
2021/05/08 05:44:36;;;;;;;1.13;1.10;;;;;;;;;;5086407;28;20204;-40
2021/05/08 05:47:04;;;;;;;2.80;1.05;;;;;;;;;;5115680;28;20188;-40
2021/05/08 05:49:30;;;;;;;1.95;1.00;;;;;;;;;;5115737;28;20609;-40
2021/05/08 05:51:56;;;;;;;1.45;1.25;;;;;;;;;;5115947;28;20295;-40
2021/05/08 05:54:22;;;;;;;1.30;1.20;;;;;;;;;;5116281;28;20582;-40
2021/05/08 05:56:48;;;;;;;1.38;1.20;;;;;;;;;;5100984;28;20204;-40
2021/05/08 05:59:14;;;;;;;5.38;1.77;;;;;;;;;;5107809;28;20173;-40
2021/05/08 06:01:40;;;;;;;16.50;3.60;;;;;;;;;;5098114;28;20295;-40
2021/05/08 06:04:06;;;;;;;11.63;4.32;;;;;;;;;;5115786;28;20184;-40
2021/05/08 06:06:33;;;;;;;13.15;4.53;;;;;;;;;;5113602;28;20192;-40
2021/05/08 06:08:59;;;;;;;13.82;4.00;;;;;;;;;;5111297;28;20173;-40
2021/05/08 06:11:25;;;;;;;15.50;4.18;;;;;;;;;;5110572;28;20174;-40
2021/05/08 06:13:51;;;;;;;15.95;3.85;;;;;;;;;;5107964;28;20541;-40
2021/05/08 06:16:18;;;;;;;16.88;3.85;;;;;;;;;;5116172;28;20207;-40
2021/05/08 06:18:44;;;;;;;11.55;3.78;;;;;;;;;;5115360;28;20181;-40
2021/05/08 06:21:10;;;;;;;13.68;3.70;;;;;;;;;;5115372;28;20581;-40
2021/05/08 06:23:36;;;;;;;9.23;3.80;;;;;;;;;;5116075;28;20169;-40
2021/05/08 06:26:02;;;;;;;11.95;3.33;;;;;;;;;;5115101;28;20177;-40
2021/05/08 06:28:28;;;;;;;12.65;3.70;;;;;;;;;;5115799;28;20213;-40
2021/05/08 06:30:55;;;;;;;8.65;3.63;;;;;;;;;;5115156;28;20178;-40
2021/05/08 06:33:23;;;;;;;10.88;3.70;;;;;;;;;;5108554;28;20185;-40
2021/05/08 06:35:49;;;;;;;6.70;3.55;;;;;;;;;;5112763;28;20249;-40
2021/05/08 06:38:15;;;;;;;10.30;3.20;;;;;;;;;;5112490;28;20177;-40
2021/05/08 06:40:41;;;;;;;7.85;3.17;;;;;;;;;;5107374;28;20230;-40
2021/05/08 06:43:07;;;;;;;6.47;3.13;;;;;;;;;;5115604;28;20172;-40
2021/05/08 06:45:33;;;;;;;6.97;2.67;;;;;;;;;;5115110;28;20184;-40
2021/05/08 06:48:00;;;;;;;7.30;2.75;;;;;;;;;;5114787;28;20250;-40
2021/05/08 06:50:27;;;;;;;8.98;2.78;;;;;;;;;;5115087;28;20257;-40
2021/05/08 06:52:53;;;;;;;5.43;2.65;;;;;;;;;;5115122;28;20173;-40
2021/05/08 06:55:19;;;;;;;3.95;2.30;;;;;;;;;;5113971;28;20197;-40
2021/05/08 06:57:45;;;;;;;4.97;2.42;;;;;;;;;;5114459;28;20257;-40
2021/05/08 07:00:11;;;;;;;6.28;2.00;;;;;;;;;;5114986;28;20554;-40
2021/05/08 07:02:37;;;;;;;5.72;2.35;;;;;;;;;;5113953;28;20273;-40
2021/05/08 07:05:03;;;;;;;9.43;2.47;;;;;;;;;;5112227;28;20217;-40
2021/05/08 07:07:29;;;;;;;7.10;2.17;;;;;;;;;;5107911;28;20199;-40
2021/05/08 07:09:55;;;;;;;6.15;2.17;;;;;;;;;;5114874;28;20188;-40
2021/05/08 07:12:21;;;;;;;10.02;1.95;;;;;;;;;;5113731;28;20181;-40
2021/05/08 07:14:47;;;;;;;4.57;1.92;;;;;;;;;;5113724;28;20258;-40
2021/05/08 07:17:13;;;;;;;5.97;1.45;;;;;;;;;;5096091;28;20817;-40
2021/05/08 07:19:39;;;;;;;4.70;1.90;;;;;;;;;;5114396;28;20316;-40
2021/05/08 07:22:05;;;;;;;11.90;3.22;;;;;;;;;;5083119;28;20576;-40
2021/05/08 07:24:31;;;;;;;10.02;2.55;;;;;;;;;;5103924;28;20251;-41
2021/05/08 07:26:58;;;;;;;9.55;2.78;;;;;;;;;;5118640;28;20432;-40
2021/05/08 07:29:27;;;;;;;8.75;2.50;;;;;;;;;;5100918;28;20180;-40
2021/05/08 07:31:53;;;;;;;8.70;2.08;;;;;;;;;;5118653;28;20169;-40
2021/05/08 07:34:19;;;;;;;8.93;2.25;;;;;;;;;;5115204;28;20185;-40
2021/05/08 07:36:46;;;;;;;8.05;2.25;;;;;;;;;;5118743;28;20199;-40
2021/05/08 07:39:12;;;;;;;10.48;1.88;;;;;;;;;;5119000;28;20656;-40
2021/05/08 07:41:38;;;;;;;9.80;2.13;;;;;;;;;;5117460;28;20546;-40
2021/05/08 07:44:04;;;;;;;5.93;1.90;;;;;;;;;;5114174;28;20180;-40
2021/05/08 07:46:30;;;;;;;4.30;2.08;;;;;;;;;;5118826;28;20583;-40
2021/05/08 07:48:56;;;;;;;12.18;2.05;;;;;;;;;;5118578;28;20555;-40
2021/05/08 07:51:23;;;;;;;4.22;1.70;;;;;;;;;;5117794;28;20179;-40
2021/05/08 07:53:49;;;;;;;8.13;1.90;;;;;;;;;;5112308;28;20182;-40
2021/05/08 07:56:15;;;;;;;6.95;2.15;;;;;;;;;;5117250;28;20639;-40
2021/05/08 07:58:41;;;;;;;3.95;2.00;;;;;;;;;;5118387;28;20421;-40
2021/05/08 08:01:06;;;;;;;5.85;2.03;;;;;;;;;;5115080;28;20197;-40
2021/05/08 08:03:33;;;;;;;4.95;1.70;;;;;;;;;;5114035;28;20501;-40
2021/05/08 08:05:58;;;;;;;4.18;1.73;;;;;;;;;;5109190;28;20587;-40
2021/05/08 08:08:25;;;;;;;5.35;1.70;;;;;;;;;;5118088;28;20177;-40
2021/05/08 08:10:51;;;;;;;5.32;2.05;;;;;;;;;;5117395;28;20254;-40
2021/05/08 08:13:17;;;;;;;5.13;2.38;;;;;;;;;;5103935;28;20680;-40
2021/05/08 08:15:43;;;;;;;5.88;2.63;;;;;;;;;;5107157;28;20197;-40
2021/05/08 08:18:09;;;;;;;4.88;2.53;;;;;;;;;;5116182;28;20222;-40
2021/05/08 08:20:36;;;;;;;5.75;2.35;;;;;;;;;;5115620;28;20512;-40
2021/05/08 08:23:02;;;;;;;9.95;2.40;;;;;;;;;;5116914;28;20173;-40
2021/05/08 08:25:28;;;;;;;4.25;2.40;;;;;;;;;;5117581;28;20196;-40
2021/05/08 08:27:54;;;;;;;7.95;2.65;;;;;;;;;;5117699;28;20184;-40
2021/05/08 08:30:20;;;;;;;7.68;2.20;;;;;;;;;;5117116;28;20226;-40
2021/05/08 08:32:46;;;;;;;6.53;1.92;;;;;;;;;;5117437;28;20200;-40
2021/05/08 08:35:12;;;;;;;4.95;2.55;;;;;;;;;;5117425;28;20193;-40
2021/05/08 08:37:38;;;;;;;6.88;1.80;;;;;;;;;;5117617;28;20188;-40
2021/05/08 08:40:05;;;;;;;37.47;9.25;;;;;;;;;;5116415;28;20188;-40
2021/05/08 08:42:31;;;;;;;149.27;31.45;;;;;;;;;;5113040;28;20181;-40
2021/05/08 08:44:57;;;;;;;240.23;48.38;;;;;;;;;;5117842;28;20168;-40
2021/05/08 08:47:30;;;;;;;231.25;47.28;;;;;;;;;;5117832;28;20613;-40
2021/05/08 08:49:58;;;;;;;215.98;42.80;;;;;;;;;;5115974;28;20261;-40
2021/05/08 08:52:24;;;;;;;156.13;34.65;;;;;;;;;;5116687;28;20567;-40
2021/05/08 08:54:51;;;;;;;133.63;29.33;;;;;;;;;;5113952;28;20259;-40
2021/05/08 08:57:23;;;;;;;127.93;27.63;;;;;;;;;;5117111;28;20211;-40
2021/05/08 08:59:49;;;;;;;107.15;23.48;;;;;;;;;;5115954;28;20433;-40
2021/05/08 09:02:15;;;;;;;101.25;22.55;;;;;;;;;;5116201;28;20212;-40
2021/05/08 09:04:41;;;;;;;87.28;19.23;;;;;;;;;;5117284;28;20205;-40
2021/05/08 09:07:08;;;;;;;79.20;18.17;;;;;;;;;;5116285;28;20576;-40
2021/05/08 09:09:34;;;;;;;77.03;18.35;;;;;;;;;;5113718;28;20604;-40
2021/05/08 09:12:00;;;;;;;78.13;18.13;;;;;;;;;;5110646;28;20177;-40
2021/05/08 09:14:27;;;;;;;73.78;18.13;;;;;;;;;;5116659;28;20193;-40
2021/05/08 09:17:03;;;;;;;61.28;15.73;;;;;;;;;;5116585;28;20210;-40
2021/05/08 09:19:30;;;;;;;60.05;15.68;;;;;;;;;;5116685;28;20177;-40
2021/05/08 09:21:56;;;;;;;59.70;15.60;;;;;;;;;;5116027;28;20185;-40
2021/05/08 09:24:22;;;;;;;57.28;14.63;;;;;;;;;;5116156;28;20169;-40
2021/05/08 09:26:52;;;;;;;50.70;14.88;;;;;;;;;;5117015;28;20174;-40
2021/05/08 09:29:18;;;;;;;52.22;13.45;;;;;;;;;;5098157;28;20196;-40
2021/05/08 09:31:55;;;;;;;46.65;13.75;;;;;;;;;;5108525;28;20173;-40
2021/05/08 09:34:21;;;;;;;39.80;12.60;;;;;;;;;;5116512;28;20173;-40
2021/05/08 09:36:54;;;;;;;46.30;13.70;;;;;;;;;;5116694;28;20258;-40
2021/05/08 09:39:32;;;;;;;41.85;11.85;;;;;;;;;;5107896;28;20552;-40
2021/05/08 09:41:58;;;;;;;38.58;11.20;;;;;;;;;;5114625;28;20198;-40
2021/05/08 09:44:24;;;;;;;36.50;12.18;;;;;;;;;;5116693;28;20429;-40
2021/05/08 09:46:52;;;;;;;38.17;11.75;;;;;;;;;;5116887;28;20400;-40
2021/05/08 09:49:21;;;;;;;33.10;10.65;;;;;;;;;;5115462;28;20229;-40
2021/05/08 09:52:00;;;;;;;33.95;10.35;;;;;;;;;;5115571;28;20185;-40
2021/05/08 09:54:27;;;;;;;29.58;10.95;;;;;;;;;;5115575;28;20843;-41
2021/05/08 09:56:53;;;;;;;30.83;11.13;;;;;;;;;;5115272;28;20231;-40
2021/05/08 09:59:26;;;;;;;33.95;10.77;;;;;;;;;;5115857;28;20181;-40
2021/05/08 10:02:05;;;;;;;25.55;9.38;;;;;;;;;;5115519;28;20180;-40
2021/05/08 10:04:32;;;;;;;28.17;10.02;;;;;;;;;;5116138;28;20212;-40
2021/05/08 10:07:14;;;;;;;28.10;9.68;;;;;;;;;;5115360;28;20662;-40
2021/05/08 10:09:41;;;;;;;24.30;8.73;;;;;;;;;;5114942;28;20684;-40
2021/05/08 10:12:08;;;;;;;26.50;8.75;;;;;;;;;;5114468;28;20201;-40
2021/05/08 10:14:35;;;;;;;25.98;9.48;;;;;;;;;;5115764;28;20181;-40
2021/05/08 10:17:01;;;;;;;29.67;9.00;;;;;;;;;;5107801;28;20618;-40
2021/05/08 10:19:30;;;;;;;30.23;9.80;;;;;;;;;;5109386;28;20177;-40
2021/05/08 10:21:57;;;;;;;34.40;11.13;;;;;;;;;;5114305;28;20263;-40
2021/05/08 10:24:25;;;;;;;32.78;10.43;;;;;;;;;;5114625;28;20200;-40
2021/05/08 10:26:57;;;;;;;29.17;10.93;;;;;;;;;;5115688;28;20187;-40
2021/05/08 10:29:23;;;;;;;42.25;12.73;;;;;;;;;;5104016;28;20657;-40
2021/05/08 10:31:49;;;;;;;40.40;14.05;;;;;;;;;;5114538;28;20543;-40
2021/05/08 10:34:15;;;;;;;47.67;14.45;;;;;;;;;;5115638;28;20175;-40
2021/05/08 10:36:44;;;;;;;49.72;14.40;;;;;;;;;;5113223;28;20647;-41
2021/05/08 10:39:10;;;;;;;46.00;15.52;;;;;;;;;;5096971;28;20287;-40
2021/05/08 10:41:52;;;;;;;65.15;20.67;;;;;;;;;;5114811;28;20190;-40
2021/05/08 10:44:36;;;;;;;70.80;23.80;;;;;;;;;;5115323;28;20215;-40
2021/05/08 10:47:02;;;;;;;73.63;25.80;;;;;;;;;;5114735;28;20477;-40
2021/05/08 10:49:28;;;;;;;112.60;33.42;;;;;;;;;;5115198;28;20264;-40
2021/05/08 10:51:55;;;;;;;125.90;39.92;;;;;;;;;;5114753;28;20310;-40
2021/05/08 10:54:44;;;;;;;162.52;46.00;;;;;;;;;;5112965;28;20184;-40
2021/05/08 10:57:13;;;;;;;163.90;45.83;;;;;;;;;;5090877;28;20710;-40
2021/05/08 11:00:15;;;;;;;187.27;48.67;;;;;;;;;;5103620;28;20188;-40
2021/05/08 11:02:41;;;;;;;189.55;49.67;;;;;;;;;;5005550;28;20432;-40
2021/05/08 11:05:22;;;;;;;203.68;54.78;;;;;;;;;;5093930;28;20536;-40
2021/05/08 11:07:49;;;;;;;188.68;55.97;;;;;;;;;;5112960;28;20219;-41
2021/05/08 11:10:33;;;;;;;210.00;62.75;;;;;;;;;;5113045;28;20196;-40
2021/05/08 11:13:05;;;;;;;203.65;60.75;;;;;;;;;;5113889;28;20219;-40
2021/05/08 11:15:56;;;;;;;183.80;58.53;;;;;;;;;;5112480;28;20516;-40
2021/05/08 11:20:58;;;;;;;175.43;53.00;;;;;;;;;;5096030;28;20245;-40
2021/05/08 11:23:24;;;;;;;160.88;53.22;;;;;;;;;;5104993;28;20264;-40
2021/05/08 11:25:50;;;;;;;167.05;50.95;;;;;;;;;;5114293;28;20260;-40
2021/05/08 11:28:16;;;;;;;139.23;48.20;;;;;;;;;;5113955;28;20205;-41
2021/05/08 11:30:52;;;;;;;158.20;48.38;;;;;;;;;;5114533;28;20649;-40
2021/05/08 11:33:25;;;;;;;144.38;46.28;;;;;;;;;;5114936;28;20180;-40
2021/05/08 11:36:04;;;;;;;146.05;46.85;;;;;;;;;;5114216;28;20240;-41
2021/05/08 11:38:31;;;;;;;141.38;45.20;;;;;;;;;;5114186;28;20570;-40
2021/05/08 11:40:57;;;;;;;133.23;44.42;;;;;;;;;;5113893;28;20206;-40
2021/05/08 11:43:24;;;;;;;124.82;41.88;;;;;;;;;;5094476;28;20166;-41
2021/05/08 11:45:50;;;;;;;136.30;43.60;;;;;;;;;;5101857;28;20173;-40
2021/05/08 11:48:16;;;;;;;112.15;39.38;;;;;;;;;;5114566;28;20181;-41
2021/05/08 11:50:46;;;;;;;127.20;41.40;;;;;;;;;;5114101;28;20174;-41
2021/05/08 11:53:16;;;;;;;127.82;42.70;;;;;;;;;;5114522;28;20170;-41
2021/05/08 11:55:46;;;;;;;129.75;40.80;;;;;;;;;;5113502;28;20201;-41
2021/05/08 11:58:23;;;;;;;115.82;41.38;;;;;;;;;;5109030;28;20182;-41
2021/05/08 12:00:49;;;;;;;118.22;41.42;;;;;;;;;;5114260;28;20414;-40
2021/05/08 12:03:16;;;;;;;115.78;40.47;;;;;;;;;;5114487;28;20165;-41
2021/05/08 12:05:43;;;;;;;117.90;40.45;;;;;;;;;;5110325;28;20178;-40
2021/05/08 12:08:09;;;;;;;105.70;38.00;;;;;;;;;;5118130;28;20204;-40
2021/05/08 12:10:36;;;;;;;116.45;40.40;;;;;;;;;;5117540;28;20570;-40
2021/05/08 12:13:02;;;;;;;102.35;39.15;;;;;;;;;;5118320;28;20284;-41
2021/05/08 12:15:32;;;;;;;105.28;38.72;;;;;;;;;;5117782;28;20264;-41
2021/05/08 12:17:59;;;;;;;101.50;36.80;;;;;;;;;;5117938;28;20441;-40
2021/05/08 12:20:26;;;;;;;93.57;36.25;;;;;;;;;;5117784;28;20184;-41
2021/05/08 12:22:53;;;;;;;87.15;35.25;;;;;;;;;;5117716;28;20181;-41
2021/05/08 12:25:20;;;;;;;90.45;35.15;;;;;;;;;;5115233;28;20181;-41
2021/05/08 12:27:46;;;;;;;91.63;33.97;;;;;;;;;;5112504;28;20252;-40
2021/05/08 12:30:13;;;;;;;87.85;34.42;;;;;;;;;;5099433;28;20196;-41
2021/05/08 12:32:52;;;;;;;91.82;33.70;;;;;;;;;;5096515;28;20166;-41
2021/05/08 12:35:20;;;;;;;87.85;32.78;;;;;;;;;;5115688;28;20222;-41
2021/05/08 12:37:46;;;;;;;80.13;32.72;;;;;;;;;;5107956;28;20268;-41
2021/05/08 12:40:12;;;;;;;89.25;32.38;;;;;;;;;;5117598;28;20191;-41
2021/05/08 12:42:42;;;;;;;85.95;32.15;;;;;;;;;;5117005;28;20585;-41
2021/05/08 12:45:08;;;;;;;78.35;29.95;;;;;;;;;;5116763;28;20161;-41
2021/05/08 12:47:46;;;;;;;76.78;30.45;;;;;;;;;;5117563;28;20184;-40
2021/05/08 12:50:25;;;;;;;74.75;29.95;;;;;;;;;;5117613;28;20580;-41
2021/05/08 12:53:04;;;;;;;79.10;29.42;;;;;;;;;;5117283;28;20185;-40
2021/05/08 12:55:34;;;;;;;73.35;29.73;;;;;;;;;;5113477;28;20173;-40
2021/05/08 12:58:07;;;;;;;67.93;28.40;;;;;;;;;;5116138;28;20265;-40
2021/05/08 13:00:44;;;;;;;70.30;28.40;;;;;;;;;;5116972;28;20248;-41
2021/05/08 13:03:31;;;;;;;67.40;27.30;;;;;;;;;;5117468;28;20173;-41
2021/05/08 13:05:57;;;;;;;61.92;26.60;;;;;;;;;;5101320;28;20185;-41
2021/05/08 13:08:41;;;;;;;61.25;26.45;;;;;;;;;;5116389;28;20181;-41
2021/05/08 13:11:08;;;;;;;65.15;26.95;;;;;;;;;;5115729;28;20177;-41
2021/05/08 13:13:34;;;;;;;63.78;25.52;;;;;;;;;;5116252;28;20196;-41
2021/05/08 13:16:00;;;;;;;54.03;24.55;;;;;;;;;;5116531;28;20197;-41
2021/05/08 13:18:26;;;;;;;53.17;23.92;;;;;;;;;;5116169;28;20571;-41
2021/05/08 13:20:52;;;;;;;52.60;21.48;;;;;;;;;;5115267;28;20208;-41
2021/05/08 13:23:18;;;;;;;51.70;23.23;;;;;;;;;;5104849;28;20262;-41
2021/05/08 13:25:44;;;;;;;53.63;23.40;;;;;;;;;;5111383;28;20180;-41
2021/05/08 13:28:11;;;;;;;52.08;22.90;;;;;;;;;;5116661;28;20302;-41
2021/05/08 13:30:37;;;;;;;54.75;22.65;;;;;;;;;;5116453;28;20592;-41
2021/05/08 13:33:03;;;;;;;68.20;26.15;;;;;;;;;;5109251;28;20184;-41
2021/05/08 13:35:29;;;;;;;84.05;27.45;;;;;;;;;;5116475;28;20207;-41
2021/05/08 13:37:57;;;;;;;81.57;28.63;;;;;;;;;;5116510;28;20206;-41
2021/05/08 13:40:23;;;;;;;93.13;29.50;;;;;;;;;;5116106;28;20264;-41
2021/05/08 13:42:49;;;;;;;88.82;29.75;;;;;;;;;;5115664;28;20551;-41
2021/05/08 13:45:16;;;;;;;92.95;30.80;;;;;;;;;;5116308;28;20220;-41
2021/05/08 13:47:42;;;;;;;104.45;33.50;;;;;;;;;;5116116;28;20173;-41
2021/05/08 13:50:08;;;;;;;100.70;33.78;;;;;;;;;;5116451;28;20317;-41
2021/05/08 13:52:34;;;;;;;104.70;33.35;;;;;;;;;;5110680;28;20514;-41
2021/05/08 13:55:01;;;;;;;102.80;31.48;;;;;;;;;;5105838;28;20169;-41
2021/05/08 13:57:27;;;;;;;103.13;32.67;;;;;;;;;;5115770;28;20216;-41
2021/05/08 13:59:53;;;;;;;101.85;33.35;;;;;;;;;;5116382;28;20185;-41
2021/05/08 14:02:19;;;;;;;88.15;30.25;;;;;;;;;;5112606;28;20170;-41
2021/05/08 14:04:45;;;;;;;90.20;29.90;;;;;;;;;;5095726;28;20166;-41
2021/05/08 14:07:12;;;;;;;91.03;30.13;;;;;;;;;;5108826;28;20542;-41
2021/05/08 14:09:38;;;;;;;82.95;29.33;;;;;;;;;;5115378;28;20176;-41
2021/05/08 14:12:04;;;;;;;89.03;31.02;;;;;;;;;;5114848;28;20207;-41
2021/05/08 14:14:30;;;;;;;89.63;30.00;;;;;;;;;;5095813;28;20525;-41
2021/05/08 14:16:56;;;;;;;74.78;27.90;;;;;;;;;;5110745;28;20215;-41
2021/05/08 14:19:22;;;;;;;77.88;27.08;;;;;;;;;;5116008;28;20185;-41
2021/05/08 14:21:49;;;;;;;83.22;27.83;;;;;;;;;;5115122;28;20200;-41
2021/05/08 14:24:18;;;;;;;79.00;27.33;;;;;;;;;;5099582;28;20567;-41
2021/05/08 14:26:45;;;;;;;77.72;28.35;;;;;;;;;;5115610;28;20333;-41
2021/05/08 14:29:12;;;;;;;60.95;26.15;;;;;;;;;;5115141;28;20608;-41
2021/05/08 14:31:38;;;;;;;62.88;26.20;;;;;;;;;;5105198;28;20185;-41
2021/05/08 14:34:04;;;;;;;66.38;26.45;;;;;;;;;;5101196;28;20176;-41